Time;durP1;ratioP1;P1;durP2;ratioP2;P2;SDS_P1;SDS_P2;PMS_P1;PMS_P2;Temp;Humidity;BMP_temperature;BMP_pressure;BME280_temperature;BME280_humidity;BME280_pressure;Samples;Min_cycle;Max_cycle;Signal;HPM_P1;HPM_P2
2023/01/18 00:01:46;;;;;;;0.20;0.20;;;;;;;;;;4990736;28;20469;-71
2023/01/18 00:04:11;;;;;;;0.30;0.30;;;;;;;;;;4990106;28;20033;-71
2023/01/18 00:06:36;;;;;;;0.20;0.20;;;;;;;;;;4986243;28;20053;-71
2023/01/18 00:09:02;;;;;;;0.30;0.30;;;;;;;;;;4992766;28;20025;-71
2023/01/18 00:11:27;;;;;;;0.30;0.30;;;;;;;;;;4993016;28;20049;-71
2023/01/18 00:13:53;;;;;;;0.30;0.30;;;;;;;;;;4994389;28;20117;-71
2023/01/18 00:16:19;;;;;;;0.30;0.30;;;;;;;;;;5002596;28;20014;-72
2023/01/18 00:18:52;;;;;;;0.30;0.30;;;;;;;;;;5001037;28;20033;-71
2023/01/18 00:21:17;;;;;;;0.30;0.30;;;;;;;;;;4990535;28;20033;-71
2023/01/18 00:23:42;;;;;;;0.30;0.30;;;;;;;;;;4986256;28;20026;-71
2023/01/18 00:26:09;;;;;;;0.30;0.30;;;;;;;;;;4997916;28;20014;-71
2023/01/18 00:28:34;;;;;;;0.30;0.30;;;;;;;;;;4986641;28;20030;-71
2023/01/18 00:31:00;;;;;;;0.20;0.20;;;;;;;;;;5002345;28;20026;-71
2023/01/18 00:33:25;;;;;;;0.30;0.30;;;;;;;;;;4987531;28;20042;-71
2023/01/18 00:35:57;;;;;;;0.30;0.30;;;;;;;;;;4981276;28;20036;-71
2023/01/18 00:38:22;;;;;;;0.30;0.30;;;;;;;;;;5010764;28;20027;-71
2023/01/18 00:40:48;;;;;;;0.30;0.30;;;;;;;;;;4987602;28;20041;-71
2023/01/18 00:45:57;;;;;;;0.30;0.30;;;;;;;;;;4981681;28;20076;-71
2023/01/18 00:48:22;;;;;;;0.30;0.30;;;;;;;;;;4997516;28;20732;-71
2023/01/18 00:50:47;;;;;;;0.28;0.28;;;;;;;;;;4990601;28;20058;-71
2023/01/18 00:53:12;;;;;;;0.30;0.30;;;;;;;;;;4988374;28;20030;-71
2023/01/18 00:55:38;;;;;;;0.30;0.30;;;;;;;;;;4992527;28;20094;-71
2023/01/18 00:58:03;;;;;;;0.30;0.30;;;;;;;;;;4990391;28;20377;-71
2023/01/18 01:00:28;;;;;;;0.30;0.30;;;;;;;;;;4996916;28;20030;-71
2023/01/18 01:02:53;;;;;;;0.30;0.30;;;;;;;;;;4988198;28;20018;-71
2023/01/18 01:08:06;;;;;;;0.30;0.30;;;;;;;;;;4994642;28;20028;-71
2023/01/18 01:10:33;;;;;;;0.30;0.30;;;;;;;;;;4988350;28;20022;-71
2023/01/18 01:26:37;;;;;;;0.30;0.30;;;;;;;;;;4989491;28;20044;-70
2023/01/18 01:29:03;;;;;;;0.30;0.30;;;;;;;;;;4988981;28;20466;-70
2023/01/18 01:31:28;;;;;;;0.25;0.25;;;;;;;;;;4988550;28;20068;-71
2023/01/18 01:33:53;;;;;;;0.60;0.28;;;;;;;;;;4989068;28;20026;-70
2023/01/18 01:36:19;;;;;;;0.23;0.23;;;;;;;;;;4989280;28;20030;-71
2023/01/18 01:38:45;;;;;;;0.30;0.30;;;;;;;;;;4993302;28;20272;-70
2023/01/18 01:41:15;;;;;;;0.20;0.20;;;;;;;;;;4992587;28;20036;-70
2023/01/18 01:43:42;;;;;;;0.30;0.30;;;;;;;;;;4997057;28;20159;-70
2023/01/18 01:46:12;;;;;;;0.30;0.30;;;;;;;;;;4988038;28;20038;-70
2023/01/18 01:48:37;;;;;;;0.30;0.30;;;;;;;;;;4986330;28;20026;-71
2023/01/18 01:51:02;;;;;;;0.20;0.20;;;;;;;;;;4987788;28;20052;-70
2023/01/18 01:53:27;;;;;;;0.30;0.30;;;;;;;;;;4985671;28;20022;-71
2023/01/18 01:55:54;;;;;;;0.30;0.30;;;;;;;;;;4985194;28;20799;-71
2023/01/18 01:58:21;;;;;;;0.28;0.28;;;;;;;;;;4989719;28;20527;-71
2023/01/18 02:00:47;;;;;;;0.30;0.30;;;;;;;;;;4990837;28;20026;-70
2023/01/18 02:03:16;;;;;;;0.20;0.20;;;;;;;;;;4985643;28;20026;-71
2023/01/18 02:05:43;;;;;;;0.30;0.30;;;;;;;;;;4986559;28;20045;-71
2023/01/18 02:08:12;;;;;;;0.30;0.30;;;;;;;;;;4990237;28;20034;-71
2023/01/18 02:10:38;;;;;;;0.20;0.20;;;;;;;;;;4988302;28;20026;-71
2023/01/18 02:13:05;;;;;;;0.20;0.20;;;;;;;;;;4983218;28;20026;-71
2023/01/18 02:15:35;;;;;;;0.20;0.20;;;;;;;;;;4990438;28;20017;-71
2023/01/18 02:18:19;;;;;;;0.30;0.30;;;;;;;;;;4985089;28;20023;-71
2023/01/18 02:20:54;;;;;;;0.35;0.35;;;;;;;;;;4983554;28;20022;-71
2023/01/18 02:23:38;;;;;;;0.20;0.20;;;;;;;;;;4981140;28;20038;-71
2023/01/18 02:26:04;;;;;;;0.30;0.30;;;;;;;;;;4977170;28;20033;-70
2023/01/18 02:28:31;;;;;;;0.30;0.30;;;;;;;;;;4987038;28;20027;-71
2023/01/18 02:30:56;;;;;;;0.20;0.20;;;;;;;;;;4979438;28;20312;-71
2023/01/18 02:33:22;;;;;;;0.30;0.30;;;;;;;;;;4979783;28;20118;-71
2023/01/18 02:35:51;;;;;;;0.30;0.30;;;;;;;;;;4982382;28;20253;-71
2023/01/18 02:38:23;;;;;;;0.30;0.30;;;;;;;;;;4996074;28;20735;-71
2023/01/18 02:41:13;;;;;;;0.30;0.30;;;;;;;;;;4980459;28;20047;-71
2023/01/18 02:46:32;;;;;;;0.30;0.30;;;;;;;;;;4982125;28;20038;-71
2023/01/18 02:49:09;;;;;;;0.30;0.30;;;;;;;;;;4995805;28;20037;-71
2023/01/18 02:51:35;;;;;;;0.30;0.30;;;;;;;;;;4985935;28;20199;-71
2023/01/18 02:54:01;;;;;;;0.30;0.30;;;;;;;;;;4984404;28;20030;-72
2023/01/18 02:56:38;;;;;;;0.30;0.30;;;;;;;;;;4987361;28;20651;-71
2023/01/18 02:59:15;;;;;;;0.22;0.22;;;;;;;;;;4977565;28;20026;-71
2023/01/18 03:01:46;;;;;;;0.30;0.30;;;;;;;;;;4975868;28;20032;-71
2023/01/18 03:04:17;;;;;;;0.30;0.30;;;;;;;;;;4982004;28;20026;-71
2023/01/18 03:06:45;;;;;;;0.30;0.30;;;;;;;;;;4982930;28;20026;-71
2023/01/18 03:09:20;;;;;;;0.20;0.20;;;;;;;;;;4983182;28;20041;-71
2023/01/18 03:11:50;;;;;;;0.30;0.30;;;;;;;;;;4984156;28;20029;-71
2023/01/18 03:14:33;;;;;;;0.30;0.30;;;;;;;;;;4980444;28;20366;-71
2023/01/18 03:17:13;;;;;;;0.30;0.30;;;;;;;;;;4986102;28;20080;-71
2023/01/18 03:20:06;;;;;;;0.30;0.30;;;;;;;;;;4979435;28;20033;-71
2023/01/18 03:25:37;;;;;;;0.30;0.30;;;;;;;;;;4976285;28;20046;-71
2023/01/18 03:33:46;;;;;;;0.30;0.30;;;;;;;;;;4978043;28;20537;-71
2023/01/18 03:36:31;;;;;;;0.30;0.30;;;;;;;;;;4986332;28;20472;-71
2023/01/18 03:38:58;;;;;;;0.25;0.25;;;;;;;;;;4985789;28;20034;-71
2023/01/18 03:41:25;;;;;;;0.30;0.30;;;;;;;;;;4987873;28;20041;-71
2023/01/18 03:43:52;;;;;;;0.20;0.20;;;;;;;;;;4981921;28;20041;-71
2023/01/18 03:46:18;;;;;;;0.30;0.30;;;;;;;;;;4979707;28;20129;-71
2023/01/18 03:48:44;;;;;;;0.30;0.30;;;;;;;;;;4984728;28;20057;-71
2023/01/18 03:51:17;;;;;;;0.30;0.30;;;;;;;;;;4982790;28;20339;-71
2023/01/18 03:53:45;;;;;;;0.20;0.20;;;;;;;;;;4981366;28;20031;-71
2023/01/18 03:56:17;;;;;;;0.30;0.30;;;;;;;;;;4982922;28;20528;-71
2023/01/18 03:58:43;;;;;;;0.30;0.30;;;;;;;;;;4980779;28;20058;-71
2023/01/18 04:01:09;;;;;;;0.30;0.30;;;;;;;;;;4982622;28;20034;-71
2023/01/18 04:03:34;;;;;;;0.30;0.30;;;;;;;;;;4981645;28;20023;-72
2023/01/18 04:06:01;;;;;;;0.30;0.30;;;;;;;;;;4984773;28;20030;-71
2023/01/18 04:08:26;;;;;;;0.30;0.30;;;;;;;;;;4989283;28;20038;-71
2023/01/18 04:10:51;;;;;;;0.22;0.22;;;;;;;;;;4988041;28;20483;-71
2023/01/18 04:13:16;;;;;;;0.30;0.30;;;;;;;;;;4976783;28;20030;-71
2023/01/18 04:15:42;;;;;;;0.30;0.30;;;;;;;;;;4982521;28;20014;-71
2023/01/18 04:18:07;;;;;;;0.38;0.38;;;;;;;;;;4979302;28;20022;-71
2023/01/18 04:20:32;;;;;;;0.30;0.30;;;;;;;;;;4987878;28;20380;-71
2023/01/18 04:22:57;;;;;;;0.30;0.30;;;;;;;;;;4987429;28;20036;-71
2023/01/18 04:25:22;;;;;;;0.30;0.30;;;;;;;;;;4991798;28;20022;-72
2023/01/18 04:27:48;;;;;;;0.30;0.30;;;;;;;;;;4986339;28;20459;-71
2023/01/18 04:30:13;;;;;;;0.30;0.30;;;;;;;;;;4982302;28;20129;-71
2023/01/18 04:32:38;;;;;;;0.30;0.30;;;;;;;;;;4975673;28;20018;-71
2023/01/18 04:35:04;;;;;;;0.30;0.30;;;;;;;;;;4989706;28;20022;-71
2023/01/18 04:37:32;;;;;;;0.20;0.20;;;;;;;;;;4987567;28;20491;-71
2023/01/18 04:39:58;;;;;;;0.30;0.30;;;;;;;;;;4986687;28;20109;-71
2023/01/18 04:42:24;;;;;;;0.30;0.30;;;;;;;;;;5004263;28;20034;-71
2023/01/18 04:44:49;;;;;;;0.30;0.30;;;;;;;;;;4985756;28;20355;-71
2023/01/18 04:47:15;;;;;;;0.30;0.30;;;;;;;;;;4982648;28;20039;-71
2023/01/18 04:49:40;;;;;;;0.30;0.30;;;;;;;;;;4980606;28;20026;-71
2023/01/18 04:52:06;;;;;;;0.20;0.20;;;;;;;;;;4984292;28;20384;-71
2023/01/18 04:54:31;;;;;;;0.30;0.30;;;;;;;;;;4983981;28;20037;-72
2023/01/18 04:56:56;;;;;;;0.30;0.30;;;;;;;;;;4985855;28;20022;-71
2023/01/18 04:59:21;;;;;;;0.30;0.30;;;;;;;;;;4982150;28;20034;-72
2023/01/18 05:01:47;;;;;;;0.30;0.30;;;;;;;;;;4996030;28;20034;-71
2023/01/18 05:04:12;;;;;;;0.30;0.30;;;;;;;;;;4987699;28;20112;-72
2023/01/18 05:06:37;;;;;;;0.25;0.25;;;;;;;;;;4988861;28;20037;-71
2023/01/18 05:09:02;;;;;;;0.22;0.22;;;;;;;;;;4987371;28;20519;-71
2023/01/18 05:11:27;;;;;;;0.30;0.30;;;;;;;;;;4982656;28;20030;-71
2023/01/18 05:13:53;;;;;;;0.30;0.30;;;;;;;;;;4985089;28;20783;-71
2023/01/18 05:16:19;;;;;;;0.30;0.30;;;;;;;;;;4988560;28;20027;-72
2023/01/18 05:18:45;;;;;;;0.30;0.30;;;;;;;;;;4985908;28;20033;-72
2023/01/18 05:21:11;;;;;;;0.20;0.20;;;;;;;;;;4982880;28;20022;-71
2023/01/18 05:23:37;;;;;;;0.30;0.30;;;;;;;;;;4986277;28;20105;-72
2023/01/18 05:26:04;;;;;;;0.30;0.30;;;;;;;;;;4982469;28;20034;-71
2023/01/18 05:28:30;;;;;;;0.25;0.25;;;;;;;;;;4977510;28;20048;-71
2023/01/18 05:30:55;;;;;;;0.30;0.30;;;;;;;;;;4984422;28;20463;-71
2023/01/18 05:33:21;;;;;;;0.30;0.30;;;;;;;;;;4983489;28;20441;-71
2023/01/18 05:35:49;;;;;;;0.20;0.20;;;;;;;;;;4991737;28;20021;-71
2023/01/18 05:38:15;;;;;;;0.30;0.30;;;;;;;;;;4982216;28;20019;-71
2023/01/18 05:40:41;;;;;;;0.30;0.30;;;;;;;;;;4972575;28;20042;-72
2023/01/18 05:43:07;;;;;;;0.30;0.30;;;;;;;;;;4985557;28;21689;-71
2023/01/18 05:45:32;;;;;;;0.30;0.30;;;;;;;;;;4982378;28;20035;-71
2023/01/18 05:47:57;;;;;;;0.30;0.30;;;;;;;;;;4988622;28;20425;-71
2023/01/18 05:50:22;;;;;;;0.30;0.30;;;;;;;;;;4988128;28;20031;-71
2023/01/18 05:52:47;;;;;;;0.40;0.40;;;;;;;;;;5002978;28;20032;-71
2023/01/18 05:55:12;;;;;;;0.32;0.32;;;;;;;;;;4989361;28;20037;-71
2023/01/18 05:57:37;;;;;;;0.30;0.30;;;;;;;;;;4996497;28;20407;-71
2023/01/18 06:00:03;;;;;;;0.30;0.30;;;;;;;;;;4975609;28;20038;-71
2023/01/18 06:02:29;;;;;;;0.20;0.20;;;;;;;;;;4983687;28;20038;-71
2023/01/18 06:04:54;;;;;;;0.30;0.30;;;;;;;;;;4994344;28;20117;-71
2023/01/18 06:07:19;;;;;;;0.30;0.30;;;;;;;;;;4990245;28;20045;-71
2023/01/18 06:09:44;;;;;;;0.30;0.30;;;;;;;;;;4978821;28;20110;-71
2023/01/18 06:12:09;;;;;;;0.30;0.30;;;;;;;;;;4984942;28;20073;-71
2023/01/18 06:14:35;;;;;;;0.40;0.40;;;;;;;;;;4985017;28;20026;-71
2023/01/18 06:17:00;;;;;;;0.30;0.30;;;;;;;;;;4976672;28;20018;-71
2023/01/18 06:19:25;;;;;;;0.30;0.30;;;;;;;;;;4982937;28;20127;-71
2023/01/18 06:21:52;;;;;;;0.30;0.30;;;;;;;;;;4991310;28;20064;-71
2023/01/18 06:24:17;;;;;;;0.30;0.30;;;;;;;;;;4984291;28;20030;-71
2023/01/18 06:26:42;;;;;;;0.30;0.30;;;;;;;;;;4984691;28;20024;-72
2023/01/18 06:29:07;;;;;;;0.30;0.30;;;;;;;;;;4979466;28;20038;-71
2023/01/18 06:31:32;;;;;;;0.30;0.30;;;;;;;;;;4984802;28;20030;-71
2023/01/18 06:33:57;;;;;;;0.40;0.40;;;;;;;;;;4978740;28;20117;-72
2023/01/18 06:36:24;;;;;;;0.30;0.30;;;;;;;;;;4986040;28;20070;-72
2023/01/18 06:38:49;;;;;;;0.25;0.25;;;;;;;;;;4996114;28;20034;-71
2023/01/18 06:41:14;;;;;;;0.30;0.30;;;;;;;;;;4981170;28;20027;-71
2023/01/18 06:43:40;;;;;;;0.30;0.30;;;;;;;;;;4982796;28;20030;-71
2023/01/18 06:46:06;;;;;;;0.30;0.30;;;;;;;;;;4980743;28;20157;-71
2023/01/18 06:48:32;;;;;;;0.30;0.30;;;;;;;;;;4992447;28;20072;-71
2023/01/18 06:50:57;;;;;;;0.30;0.30;;;;;;;;;;4983476;28;20034;-72
2023/01/18 06:53:22;;;;;;;0.30;0.30;;;;;;;;;;4993702;28;20026;-71
2023/01/18 06:55:55;;;;;;;0.30;0.30;;;;;;;;;;4991024;28;20109;-71
2023/01/18 06:58:21;;;;;;;0.28;0.28;;;;;;;;;;4992975;28;20406;-71
2023/01/18 07:00:46;;;;;;;0.30;0.30;;;;;;;;;;4981937;28;20354;-71
2023/01/18 07:03:11;;;;;;;0.30;0.30;;;;;;;;;;4983167;28;20045;-71
2023/01/18 07:05:36;;;;;;;0.30;0.30;;;;;;;;;;4988948;28;20026;-71
2023/01/18 07:08:02;;;;;;;0.30;0.30;;;;;;;;;;4988456;28;20461;-71
2023/01/18 07:10:27;;;;;;;0.30;0.30;;;;;;;;;;4986117;28;20022;-71
2023/01/18 07:12:52;;;;;;;0.30;0.30;;;;;;;;;;4980388;28;20031;-71
2023/01/18 07:15:17;;;;;;;0.30;0.30;;;;;;;;;;4985079;28;20030;-71
2023/01/18 07:17:43;;;;;;;0.30;0.30;;;;;;;;;;4980687;28;20019;-71
2023/01/18 07:20:09;;;;;;;0.30;0.30;;;;;;;;;;4977897;28;20034;-71
2023/01/18 07:22:34;;;;;;;0.30;0.30;;;;;;;;;;4979521;28;20034;-72
2023/01/18 07:24:59;;;;;;;0.30;0.30;;;;;;;;;;4978258;28;20624;-71
2023/01/18 07:27:25;;;;;;;0.30;0.30;;;;;;;;;;4981012;28;20450;-72
2023/01/18 07:29:50;;;;;;;0.30;0.30;;;;;;;;;;4977345;28;20037;-72
2023/01/18 07:32:16;;;;;;;0.30;0.30;;;;;;;;;;4981173;28;20030;-71
2023/01/18 07:34:41;;;;;;;0.30;0.30;;;;;;;;;;4987518;28;20490;-71
2023/01/18 07:37:06;;;;;;;0.30;0.30;;;;;;;;;;4984718;28;20484;-72
2023/01/18 07:39:31;;;;;;;0.30;0.30;;;;;;;;;;4989585;28;20022;-71
2023/01/18 07:41:57;;;;;;;0.40;0.40;;;;;;;;;;4980198;28;20023;-71
2023/01/18 07:44:22;;;;;;;0.38;0.38;;;;;;;;;;4997543;28;20843;-71
2023/01/18 07:46:47;;;;;;;0.40;0.40;;;;;;;;;;4979614;28;20465;-71
2023/01/18 07:49:12;;;;;;;0.30;0.30;;;;;;;;;;4979947;28;20023;-71
2023/01/18 07:51:38;;;;;;;0.30;0.30;;;;;;;;;;4977115;28;20156;-71
2023/01/18 07:54:03;;;;;;;0.38;0.38;;;;;;;;;;4986683;28;20754;-71
2023/01/18 07:56:28;;;;;;;0.38;0.38;;;;;;;;;;4989115;28;20452;-71
2023/01/18 07:58:53;;;;;;;0.30;0.30;;;;;;;;;;4989366;28;20027;-71
2023/01/18 08:01:20;;;;;;;0.30;0.30;;;;;;;;;;4988644;28;20108;-72
2023/01/18 08:03:46;;;;;;;0.38;0.38;;;;;;;;;;4992335;28;20045;-71
2023/01/18 08:06:12;;;;;;;0.30;0.30;;;;;;;;;;4978362;28;20101;-71
2023/01/18 08:08:37;;;;;;;0.30;0.30;;;;;;;;;;4983829;28;20031;-71
2023/01/18 08:11:03;;;;;;;0.30;0.30;;;;;;;;;;4986536;28;20034;-72
2023/01/18 08:13:29;;;;;;;0.30;0.30;;;;;;;;;;4989636;28;20030;-71
2023/01/18 08:15:54;;;;;;;0.30;0.30;;;;;;;;;;4985585;28;20476;-72
2023/01/18 08:18:20;;;;;;;0.30;0.30;;;;;;;;;;4997171;28;20022;-71
2023/01/18 08:20:46;;;;;;;0.30;0.30;;;;;;;;;;4984922;28;20026;-71
2023/01/18 08:23:11;;;;;;;0.30;0.30;;;;;;;;;;4976587;28;20424;-71
2023/01/18 08:25:36;;;;;;;0.30;0.30;;;;;;;;;;4983613;28;20034;-71
2023/01/18 08:28:02;;;;;;;0.30;0.30;;;;;;;;;;4982054;28;20477;-72
2023/01/18 08:30:29;;;;;;;0.30;0.30;;;;;;;;;;4978711;28;20532;-72
2023/01/18 08:32:56;;;;;;;0.30;0.30;;;;;;;;;;4986657;28;20026;-72
2023/01/18 08:35:21;;;;;;;0.30;0.30;;;;;;;;;;4985065;28;20034;-72
2023/01/18 08:37:46;;;;;;;0.30;0.30;;;;;;;;;;4994970;28;20026;-72
2023/01/18 08:40:12;;;;;;;0.30;0.30;;;;;;;;;;4991045;28;20186;-72
2023/01/18 08:42:37;;;;;;;0.30;0.30;;;;;;;;;;4988285;28;20034;-72
2023/01/18 08:45:03;;;;;;;0.30;0.30;;;;;;;;;;4984873;28;20037;-72
2023/01/18 08:47:28;;;;;;;0.30;0.30;;;;;;;;;;4986303;28;20026;-71
2023/01/18 08:49:54;;;;;;;0.30;0.30;;;;;;;;;;4983888;28;20026;-71
2023/01/18 08:52:19;;;;;;;0.30;0.30;;;;;;;;;;4988226;28;20032;-71
2023/01/18 08:54:44;;;;;;;0.30;0.30;;;;;;;;;;4992406;28;20372;-71
2023/01/18 08:57:09;;;;;;;0.30;0.30;;;;;;;;;;5000771;28;20030;-71
2023/01/18 08:59:35;;;;;;;0.30;0.30;;;;;;;;;;4995652;28;20461;-72
2023/01/18 09:02:00;;;;;;;0.20;0.20;;;;;;;;;;4980957;28;20034;-72
2023/01/18 09:04:27;;;;;;;0.30;0.30;;;;;;;;;;4991456;28;20030;-71
2023/01/18 09:06:52;;;;;;;0.30;0.30;;;;;;;;;;4983984;28;20076;-71
2023/01/18 09:09:18;;;;;;;0.30;0.30;;;;;;;;;;4985639;28;20030;-71
2023/01/18 09:11:43;;;;;;;0.20;0.20;;;;;;;;;;4988851;28;20053;-71
2023/01/18 09:14:08;;;;;;;0.20;0.20;;;;;;;;;;4988073;28;20038;-72
2023/01/18 09:16:33;;;;;;;0.20;0.20;;;;;;;;;;4983506;28;20070;-71
2023/01/18 09:18:59;;;;;;;0.30;0.30;;;;;;;;;;4986723;28;20026;-71
2023/01/18 09:21:26;;;;;;;0.30;0.30;;;;;;;;;;4988552;28;20371;-71
2023/01/18 09:23:51;;;;;;;0.20;0.20;;;;;;;;;;4991772;28;20148;-72
2023/01/18 09:26:19;;;;;;;0.25;0.25;;;;;;;;;;4984471;28;20026;-72
2023/01/18 09:28:46;;;;;;;0.30;0.30;;;;;;;;;;4984012;28;20339;-72
2023/01/18 09:31:11;;;;;;;0.20;0.20;;;;;;;;;;4975958;28;20050;-72
2023/01/18 09:33:38;;;;;;;0.20;0.20;;;;;;;;;;4979426;28;20045;-72
2023/01/18 09:36:04;;;;;;;0.20;0.20;;;;;;;;;;4988292;28;20398;-71
2023/01/18 09:38:30;;;;;;;0.30;0.30;;;;;;;;;;4984558;28;20030;-72
2023/01/18 09:40:55;;;;;;;0.20;0.20;;;;;;;;;;4996277;28;20026;-71
2023/01/18 09:43:23;;;;;;;0.30;0.30;;;;;;;;;;4989087;28;20057;-71
2023/01/18 09:45:49;;;;;;;0.30;0.30;;;;;;;;;;4989387;28;20448;-71
2023/01/18 09:48:34;;;;;;;0.30;0.30;;;;;;;;;;4984287;28;20030;-71
2023/01/18 09:51:02;;;;;;;0.20;0.20;;;;;;;;;;4982300;28;20019;-71
2023/01/18 09:53:54;;;;;;;0.30;0.30;;;;;;;;;;4985524;28;20057;-71
2023/01/18 09:56:24;;;;;;;0.20;0.20;;;;;;;;;;4961320;28;20031;-70
2023/01/18 09:59:12;;;;;;;0.30;0.30;;;;;;;;;;4988922;28;20078;-71
2023/01/18 10:01:37;;;;;;;0.30;0.30;;;;;;;;;;4985667;28;20030;-71
2023/01/18 10:04:16;;;;;;;0.20;0.20;;;;;;;;;;4981597;28;20030;-71
2023/01/18 10:06:51;;;;;;;0.30;0.30;;;;;;;;;;4973655;28;20037;-71
2023/01/18 10:09:21;;;;;;;0.30;0.30;;;;;;;;;;4980642;28;20041;-71
2023/01/18 10:11:47;;;;;;;0.25;0.25;;;;;;;;;;4987651;28;20484;-71
2023/01/18 10:14:12;;;;;;;0.30;0.30;;;;;;;;;;4983777;28;20420;-71
2023/01/18 10:16:37;;;;;;;0.20;0.20;;;;;;;;;;4986033;28;20513;-70
2023/01/18 10:19:03;;;;;;;0.30;0.30;;;;;;;;;;4992659;28;20271;-71
2023/01/18 10:21:36;;;;;;;0.30;0.30;;;;;;;;;;4979373;28;20597;-70
2023/01/18 10:24:01;;;;;;;0.20;0.20;;;;;;;;;;4976728;28;20465;-70
2023/01/18 10:26:30;;;;;;;0.30;0.30;;;;;;;;;;4983876;28;20034;-71
2023/01/18 10:29:01;;;;;;;0.30;0.30;;;;;;;;;;4986201;28;20031;-70
2023/01/18 10:31:35;;;;;;;0.20;0.20;;;;;;;;;;4983245;28;20321;-71
2023/01/18 10:34:01;;;;;;;0.30;0.30;;;;;;;;;;4988665;28;20018;-71
2023/01/18 10:36:37;;;;;;;0.30;0.30;;;;;;;;;;4982894;28;20551;-72
2023/01/18 10:39:04;;;;;;;0.20;0.20;;;;;;;;;;4980556;28;20026;-71
2023/01/18 10:41:32;;;;;;;0.30;0.30;;;;;;;;;;4983537;28;20471;-71
2023/01/18 10:43:57;;;;;;;0.20;0.20;;;;;;;;;;4977385;28;20030;-70
2023/01/18 10:46:22;;;;;;;0.20;0.20;;;;;;;;;;4973795;28;20026;-71
2023/01/18 10:48:48;;;;;;;0.20;0.20;;;;;;;;;;4981332;28;20030;-71
2023/01/18 10:51:34;;;;;;;0.20;0.20;;;;;;;;;;4984843;28;20120;-70
2023/01/18 10:54:19;;;;;;;0.20;0.20;;;;;;;;;;4979827;28;20129;-71
2023/01/18 10:56:44;;;;;;;0.30;0.30;;;;;;;;;;4983512;28;20137;-71
2023/01/18 10:59:29;;;;;;;0.20;0.20;;;;;;;;;;4987929;28;20060;-71
2023/01/18 11:01:56;;;;;;;0.30;0.30;;;;;;;;;;4981854;28;20058;-70
2023/01/18 11:04:23;;;;;;;0.20;0.20;;;;;;;;;;4968204;28;20033;-71
2023/01/18 11:06:50;;;;;;;0.20;0.20;;;;;;;;;;4980578;28;20046;-70
2023/01/18 11:09:34;;;;;;;0.20;0.20;;;;;;;;;;4983510;28;20047;-70
2023/01/18 11:12:33;;;;;;;0.20;0.20;;;;;;;;;;4983637;28;20698;-70
2023/01/18 11:15:24;;;;;;;0.20;0.20;;;;;;;;;;4982229;28;20038;-70
2023/01/18 11:17:55;;;;;;;0.20;0.20;;;;;;;;;;4974600;28;20034;-70
2023/01/18 11:20:22;;;;;;;0.20;0.20;;;;;;;;;;4991405;28;20085;-70
2023/01/18 11:22:54;;;;;;;0.30;0.30;;;;;;;;;;4989368;28;20022;-70
2023/01/18 11:25:20;;;;;;;0.20;0.20;;;;;;;;;;4974196;28;20025;-70
2023/01/18 11:27:48;;;;;;;0.20;0.20;;;;;;;;;;4977042;28;20398;-70
2023/01/18 11:30:19;;;;;;;0.20;0.20;;;;;;;;;;4981636;28;20039;-69
2023/01/18 11:32:45;;;;;;;0.20;0.20;;;;;;;;;;4983080;28;20377;-70
2023/01/18 11:35:10;;;;;;;0.20;0.20;;;;;;;;;;4998763;28;20033;-70
2023/01/18 11:37:36;;;;;;;0.20;0.20;;;;;;;;;;4989959;28;20033;-70
2023/01/18 11:40:25;;;;;;;0.25;0.25;;;;;;;;;;4984147;28;20018;-69
2023/01/18 11:42:52;;;;;;;0.20;0.20;;;;;;;;;;4988210;28;20419;-70
2023/01/18 11:45:31;;;;;;;0.20;0.20;;;;;;;;;;4985551;28;20104;-69
2023/01/18 11:47:57;;;;;;;0.20;0.20;;;;;;;;;;4982945;28;20054;-70
2023/01/18 11:50:39;;;;;;;0.30;0.30;;;;;;;;;;4982614;28;20058;-70
2023/01/18 11:53:22;;;;;;;0.20;0.20;;;;;;;;;;4981843;28;20296;-69
2023/01/18 11:56:03;;;;;;;0.20;0.20;;;;;;;;;;4993745;28;20025;-70
2023/01/18 11:58:28;;;;;;;0.20;0.20;;;;;;;;;;4993159;28;20030;-69
2023/01/18 12:00:57;;;;;;;0.22;0.20;;;;;;;;;;4983206;28;20037;-69
2023/01/18 12:03:40;;;;;;;0.20;0.20;;;;;;;;;;4989191;28;20030;-70
2023/01/18 12:06:12;;;;;;;0.20;0.20;;;;;;;;;;4981904;28;20379;-70
2023/01/18 12:08:46;;;;;;;0.20;0.20;;;;;;;;;;4983683;28;20048;-70
2023/01/18 12:11:30;;;;;;;0.20;0.20;;;;;;;;;;4998522;28;20401;-70
2023/01/18 12:14:21;;;;;;;0.20;0.20;;;;;;;;;;5004112;28;20123;-69
2023/01/18 12:16:56;;;;;;;0.20;0.20;;;;;;;;;;4971454;28;20031;-69
2023/01/18 12:19:21;;;;;;;;;;;;;;;;;;4995965;28;20037;-70
2023/01/18 12:21:52;;;;;;;0.20;0.20;;;;;;;;;;4982853;28;19914;-70
2023/01/18 12:24:27;;;;;;;0.20;0.20;;;;;;;;;;4984326;28;20137;-70
2023/01/18 12:26:59;;;;;;;0.20;0.20;;;;;;;;;;4998376;28;20413;-69
2023/01/18 12:29:47;;;;;;;0.20;0.20;;;;;;;;;;4988364;28;20088;-70
2023/01/18 12:32:24;;;;;;;0.20;0.20;;;;;;;;;;4984557;28;20105;-69
2023/01/18 12:34:49;;;;;;;0.20;0.20;;;;;;;;;;4980798;28;20552;-69
2023/01/18 12:37:36;;;;;;;0.20;0.20;;;;;;;;;;4992287;28;20240;-70
2023/01/18 12:40:26;;;;;;;0.20;0.20;;;;;;;;;;4987430;28;20223;-70
2023/01/18 12:42:59;;;;;;;0.20;0.20;;;;;;;;;;4976028;28;20110;-70
2023/01/18 12:45:36;;;;;;;0.20;0.20;;;;;;;;;;4993876;28;20064;-70
2023/01/18 12:48:23;;;;;;;0.20;0.20;;;;;;;;;;5000977;28;20117;-70
2023/01/18 12:50:49;;;;;;;0.20;0.20;;;;;;;;;;4990778;28;20076;-70
2023/01/18 12:53:34;;;;;;;0.17;0.17;;;;;;;;;;4983163;28;20137;-71
2023/01/18 12:56:02;;;;;;;0.10;0.10;;;;;;;;;;4988261;28;20022;-70
2023/01/18 12:58:27;;;;;;;0.20;0.20;;;;;;;;;;4984852;28;20182;-70
2023/01/18 13:00:56;;;;;;;0.10;0.10;;;;;;;;;;4983436;28;20105;-70
2023/01/18 13:03:41;;;;;;;0.20;0.20;;;;;;;;;;4985954;28;20280;-70
2023/01/18 13:06:08;;;;;;;0.20;0.20;;;;;;;;;;4977949;28;20058;-70
2023/01/18 13:08:41;;;;;;;0.20;0.20;;;;;;;;;;4988199;28;20030;-69
2023/01/18 13:11:26;;;;;;;0.20;0.20;;;;;;;;;;4985169;28;20030;-70
2023/01/18 13:14:00;;;;;;;0.20;0.20;;;;;;;;;;4981111;28;20038;-69
2023/01/18 13:16:34;;;;;;;0.20;0.20;;;;;;;;;;4989458;28;20026;-69
2023/01/18 13:19:08;;;;;;;0.20;0.20;;;;;;;;;;4992567;28;20030;-69
2023/01/18 13:21:34;;;;;;;0.20;0.20;;;;;;;;;;4985482;28;20035;-70
2023/01/18 13:24:25;;;;;;;0.20;0.20;;;;;;;;;;4987037;28;20040;-70
2023/01/18 13:26:52;;;;;;;0.20;0.20;;;;;;;;;;4977286;28;20035;-69
2023/01/18 13:29:24;;;;;;;0.20;0.20;;;;;;;;;;4982910;28;20026;-70
2023/01/18 13:31:50;;;;;;;0.20;0.20;;;;;;;;;;4986308;28;20224;-70
2023/01/18 13:34:21;;;;;;;0.15;0.15;;;;;;;;;;4978201;28;20023;-70
2023/01/18 13:36:46;;;;;;;0.10;0.10;;;;;;;;;;4982522;28;20022;-70
2023/01/18 13:39:16;;;;;;;0.10;0.10;;;;;;;;;;4984241;28;20419;-70
2023/01/18 13:42:00;;;;;;;0.10;0.10;;;;;;;;;;4982423;28;20031;-70
2023/01/18 13:44:29;;;;;;;0.10;0.10;;;;;;;;;;4990687;28;20473;-70
2023/01/18 13:46:56;;;;;;;0.10;0.10;;;;;;;;;;4981365;28;20424;-69
2023/01/18 13:49:36;;;;;;;0.10;0.10;;;;;;;;;;4982465;28;20081;-70
2023/01/18 13:52:03;;;;;;;0.10;0.10;;;;;;;;;;4992288;28;20024;-70
2023/01/18 13:54:28;;;;;;;0.10;0.10;;;;;;;;;;4988046;28;20477;-70
2023/01/18 13:56:59;;;;;;;0.10;0.10;;;;;;;;;;4996724;28;20030;-70
2023/01/18 13:59:26;;;;;;;0.20;0.20;;;;;;;;;;4997717;28;20022;-69
2023/01/18 14:02:03;;;;;;;0.20;0.20;;;;;;;;;;4984895;28;20359;-70
2023/01/18 14:04:30;;;;;;;0.20;0.20;;;;;;;;;;5002937;28;20408;-69
2023/01/18 14:06:57;;;;;;;0.20;0.20;;;;;;;;;;4991842;28;20018;-70
2023/01/18 14:09:34;;;;;;;0.20;0.20;;;;;;;;;;4986138;28;20036;-70
2023/01/18 14:11:59;;;;;;;0.10;0.10;;;;;;;;;;4981060;28;20031;-70
2023/01/18 14:14:29;;;;;;;0.10;0.10;;;;;;;;;;4987043;28;20140;-69
2023/01/18 14:16:57;;;;;;;0.10;0.10;;;;;;;;;;4993028;28;20030;-69
2023/01/18 14:19:26;;;;;;;0.13;0.13;;;;;;;;;;4993661;28;20060;-69
2023/01/18 14:22:06;;;;;;;0.10;0.10;;;;;;;;;;4999277;28;20457;-70
2023/01/18 14:24:31;;;;;;;0.10;0.10;;;;;;;;;;4975314;28;20362;-70
2023/01/18 14:26:58;;;;;;;0.10;0.10;;;;;;;;;;4993076;28;20041;-70
2023/01/18 14:29:24;;;;;;;0.10;0.10;;;;;;;;;;4999367;28;20251;-70
2023/01/18 14:31:51;;;;;;;0.10;0.10;;;;;;;;;;4998962;28;20030;-71
2023/01/18 14:34:28;;;;;;;0.10;0.10;;;;;;;;;;4974577;28;20137;-70
2023/01/18 14:36:54;;;;;;;0.20;0.20;;;;;;;;;;4982351;28;20408;-71
2023/01/18 14:39:20;;;;;;;0.20;0.20;;;;;;;;;;5010280;28;20030;-70
2023/01/18 14:41:59;;;;;;;0.20;0.20;;;;;;;;;;4990648;28;20021;-71
2023/01/18 14:44:41;;;;;;;0.10;0.10;;;;;;;;;;4981612;28;20046;-71
2023/01/18 14:47:17;;;;;;;0.10;0.10;;;;;;;;;;4981824;28;20543;-70
2023/01/18 14:49:43;;;;;;;0.10;0.10;;;;;;;;;;4980604;28;20070;-70
2023/01/18 14:52:12;;;;;;;0.10;0.10;;;;;;;;;;4981416;28;20109;-70
2023/01/18 14:54:37;;;;;;;0.10;0.10;;;;;;;;;;4983990;28;20018;-70
2023/01/18 14:57:04;;;;;;;0.20;0.20;;;;;;;;;;4990471;28;20048;-70
2023/01/18 14:59:32;;;;;;;0.20;0.20;;;;;;;;;;4993378;28;20410;-70
2023/01/18 15:01:57;;;;;;;0.10;0.10;;;;;;;;;;4984922;28;20030;-69
2023/01/18 15:04:24;;;;;;;0.20;0.20;;;;;;;;;;4974973;28;20026;-69
2023/01/18 15:06:52;;;;;;;0.10;0.10;;;;;;;;;;4985732;28;20766;-70
2023/01/18 15:09:19;;;;;;;0.20;0.20;;;;;;;;;;4984655;28;20445;-69
2023/01/18 15:11:44;;;;;;;0.10;0.10;;;;;;;;;;4987175;28;20030;-70
2023/01/18 15:14:16;;;;;;;0.10;0.10;;;;;;;;;;4987799;28;20048;-69
2023/01/18 15:16:42;;;;;;;0.17;0.17;;;;;;;;;;4982648;28;20026;-70
2023/01/18 15:19:11;;;;;;;0.10;0.10;;;;;;;;;;4994646;28;20024;-70
2023/01/18 15:21:36;;;;;;;0.20;0.20;;;;;;;;;;4982587;28;20397;-70
2023/01/18 15:24:04;;;;;;;0.17;0.17;;;;;;;;;;4992147;28;20458;-69